Blacksburg, South Carolina
Current Conditions -  °F | °C
As of 4:15 PM on Sunday 23 Nov 2014 (Local Time) from KEHO Reporting Station
Moderate Rain Moderate Rain  
Wind Chill: 40°   Ceiling: 400
Heat Index: 46°   Visibility: 2.5mi
Dew Point: 45°   Wind: 10mph
Humidity: 99%   Direction: 50°NE
Pressure: 29.88"   Gusts: NA
Location:  35.12°N, 81.52°W
Report Text: KEHO 232115Z AUTO 05009KT 2 1/2SM RA OVC004 08/07 A2988 RMK AO2 P0005 T00750073
Loading
Personal Weather Stations






























Interactive Weather Map New forecast layout! Learn more

10-Day Weather Forecast

Advertisements
Track Severe Weather on mobile